createdAt,value
2022-12-14T00:01:23.326Z,19.05
2022-12-14T00:03:50.563Z,17.92
2022-12-14T00:06:20.468Z,14.32
2022-12-14T00:08:48.917Z,20.23
2022-12-14T00:11:16.217Z,17.95
2022-12-14T00:13:44.084Z,17.63
2022-12-14T00:16:17.970Z,11.93
2022-12-14T00:18:52.410Z,15.10
2022-12-14T00:21:20.097Z,19.80
2022-12-14T00:23:48.990Z,15.85
2022-12-14T00:26:17.742Z,15.85
2022-12-14T00:28:46.034Z,22.10
2022-12-14T00:31:13.352Z,14.27
2022-12-14T00:33:40.607Z,15.23
2022-12-14T00:36:09.630Z,18.40
2022-12-14T00:38:37.084Z,17.58
2022-12-14T00:41:03.773Z,15.00
2022-12-14T00:43:31.039Z,15.38
2022-12-14T00:45:58.016Z,14.70
2022-12-14T00:48:26.396Z,16.40
2022-12-14T00:50:55.451Z,16.17
2022-12-14T00:53:24.408Z,14.77
2022-12-14T00:55:51.895Z,15.15
2022-12-14T00:58:21.044Z,15.20
2022-12-14T05:02:24.577Z,15.80
2022-12-14T05:05:00.206Z,9.35
2022-12-14T05:08:21.156Z,13.68
2022-12-14T05:10:50.680Z,17.55
2022-12-14T05:13:45.375Z,13.77
2022-12-14T05:16:21.059Z,14.82
2022-12-14T05:18:48.120Z,13.88
2022-12-14T05:21:34.834Z,11.02
2022-12-14T05:24:03.731Z,10.90
2022-12-14T05:26:32.206Z,13.60
2022-12-14T05:28:58.893Z,11.05
2022-12-14T05:31:25.841Z,11.30
2022-12-14T05:33:52.566Z,10.93
2022-12-14T05:36:19.677Z,13.32
2022-12-14T05:38:46.756Z,14.35
2022-12-14T05:41:14.208Z,12.82
2022-12-14T05:43:41.414Z,12.10
2022-12-14T05:46:09.982Z,10.88
2022-12-14T05:48:36.739Z,13.50
2022-12-14T05:51:07.915Z,14.82
2022-12-14T05:53:35.731Z,10.85
2022-12-14T05:56:03.158Z,13.93
2022-12-14T05:58:29.990Z,14.10
2022-12-14T06:01:01.662Z,16.00
2022-12-14T06:03:29.379Z,16.08
2022-12-14T06:06:04.939Z,16.38
2022-12-14T06:08:33.500Z,16.02
2022-12-14T06:11:09.000Z,17.20
2022-12-14T06:13:36.750Z,13.90
2022-12-14T06:16:11.062Z,16.45
2022-12-14T06:18:48.640Z,17.77
2022-12-14T06:21:17.225Z,13.50
2022-12-14T06:23:44.623Z,14.50
2022-12-14T06:26:12.126Z,16.95
2022-12-14T06:28:39.192Z,17.33
2022-12-14T06:31:06.524Z,18.17
2022-12-14T06:33:37.863Z,14.93
2022-12-14T06:36:05.020Z,20.15
2022-12-14T06:38:31.753Z,22.30
2022-12-14T06:40:58.403Z,23.35
2022-12-14T06:43:26.809Z,20.95
2022-12-14T06:45:53.977Z,18.83
2022-12-14T06:48:20.941Z,18.05
2022-12-14T06:50:47.737Z,19.00
2022-12-14T06:53:14.774Z,20.55
2022-12-14T06:55:41.825Z,29.13
2022-12-14T06:58:12.905Z,25.80
2022-12-14T07:00:39.764Z,15.77
2022-12-14T07:03:06.878Z,24.27
2022-12-14T07:05:33.669Z,18.75
2022-12-14T07:08:00.421Z,19.48
2022-12-14T07:10:27.217Z,23.95
2022-12-14T07:12:53.925Z,24.40
2022-12-14T07:15:20.611Z,23.63
2022-12-14T07:17:47.410Z,18.38
2022-12-14T07:20:14.620Z,21.60
2022-12-14T07:22:41.475Z,18.52
2022-12-14T07:25:08.937Z,22.00
2022-12-14T07:27:38.712Z,27.60
2022-12-14T07:30:06.055Z,22.50
2022-12-14T07:32:33.763Z,20.88
2022-12-14T07:35:00.921Z,22.77
2022-12-14T07:37:27.640Z,22.33
2022-12-14T07:39:54.320Z,25.15
2022-12-14T07:42:21.035Z,19.38
2022-12-14T07:44:47.832Z,23.95
2022-12-14T07:47:16.736Z,20.55
2022-12-14T07:49:44.345Z,21.17
2022-12-14T07:52:11.323Z,26.27
2022-12-14T07:54:38.460Z,19.98
2022-12-14T07:57:05.278Z,20.15
2022-12-14T07:59:32.078Z,24.50
2022-12-14T08:01:58.855Z,24.33
2022-12-14T08:04:26.036Z,21.35
2022-12-14T08:06:52.960Z,21.67
2022-12-14T08:09:20.265Z,23.15
2022-12-14T08:11:47.366Z,20.20
2022-12-14T08:14:19.286Z,23.33
2022-12-14T08:16:47.797Z,22.42
2022-12-14T08:19:15.398Z,20.30
2022-12-14T08:21:42.653Z,20.73
2022-12-14T08:24:13.659Z,19.65
2022-12-14T08:26:40.641Z,21.38
2022-12-14T08:29:07.382Z,22.58
2022-12-14T08:31:34.663Z,24.70
2022-12-14T08:34:02.360Z,20.52
2022-12-14T08:36:34.431Z,18.92
2022-12-14T08:39:06.578Z,24.50
2022-12-14T08:41:34.273Z,22.60
2022-12-14T08:44:02.700Z,21.70
2022-12-14T08:46:31.589Z,24.25
2022-12-14T08:48:58.787Z,18.00
2022-12-14T08:51:27.356Z,25.58
2022-12-14T08:53:55.079Z,22.75
2022-12-14T08:56:24.952Z,19.02
2022-12-14T08:58:52.755Z,18.83
2022-12-14T09:01:32.135Z,23.17
2022-12-14T09:04:06.195Z,27.23
2022-12-14T09:06:35.884Z,25.77
2022-12-14T09:09:03.299Z,25.08
2022-12-14T09:11:30.020Z,21.33
2022-12-14T09:13:56.941Z,18.05
2022-12-14T09:16:26.272Z,18.58
2022-12-14T09:18:54.077Z,18.95
2022-12-14T09:21:21.681Z,19.83
2022-12-14T09:23:52.625Z,22.58
2022-12-14T09:26:23.799Z,24.60
2022-12-14T09:28:53.652Z,22.92
2022-12-14T09:31:22.992Z,22.30
2022-12-14T09:33:50.186Z,21.67
2022-12-14T09:36:20.524Z,21.60
2022-12-14T09:38:52.031Z,18.58
2022-12-14T09:41:35.100Z,24.95
2022-12-14T09:46:46.130Z,22.52
2022-12-14T09:49:51.143Z,25.17
2022-12-14T09:52:29.640Z,19.88
2022-12-14T09:54:57.673Z,21.20
2022-12-14T09:57:38.086Z,15.25
2022-12-14T10:00:13.326Z,20.38
2022-12-14T10:02:43.063Z,17.27
2022-12-14T10:05:12.614Z,25.15
2022-12-14T10:07:51.417Z,23.10
2022-12-14T10:11:00.978Z,16.23
2022-12-14T10:13:28.063Z,18.40
2022-12-14T10:16:30.422Z,12.85
2022-12-14T10:19:05.322Z,19.33
2022-12-14T10:22:04.217Z,18.27
2022-12-14T10:24:37.168Z,19.10
2022-12-14T10:27:08.002Z,21.02
2022-12-14T10:29:49.441Z,20.30
2022-12-14T10:32:30.219Z,16.45
2022-12-14T10:34:57.457Z,22.55
2022-12-14T10:37:35.169Z,18.05
2022-12-14T10:40:17.451Z,16.20
2022-12-14T10:43:17.890Z,18.27
2022-12-14T10:46:10.091Z,17.40
2022-12-14T10:48:45.216Z,20.90
2022-12-14T10:51:30.509Z,19.73
2022-12-14T10:54:38.358Z,15.73
2022-12-14T10:57:05.798Z,17.80
2022-12-14T10:59:44.603Z,16.63
2022-12-14T11:02:27.687Z,19.33
2022-12-14T11:05:00.592Z,17.30
2022-12-14T11:07:38.881Z,19.55
2022-12-14T11:10:19.073Z,16.83
2022-12-14T11:12:57.773Z,20.08
2022-12-14T11:15:33.335Z,16.33
2022-12-14T11:18:06.769Z,20.05
2022-12-14T11:20:34.424Z,19.50
2022-12-14T11:23:17.911Z,19.25
2022-12-14T11:25:48.291Z,16.42
2022-12-14T11:28:32.760Z,17.00
2022-12-14T11:31:12.190Z,13.40
2022-12-14T11:33:44.609Z,15.27
2022-12-14T11:36:37.722Z,19.35
2022-12-14T11:39:24.354Z,18.02
2022-12-14T11:42:02.737Z,14.05
2022-12-14T11:44:33.465Z,14.70
2022-12-14T11:47:05.729Z,12.93
2022-12-14T11:49:47.060Z,18.42
2022-12-14T11:52:19.795Z,12.93
2022-12-14T11:54:50.080Z,18.92
2022-12-14T11:57:26.415Z,13.40
2022-12-14T12:00:01.789Z,14.65
2022-12-14T12:02:46.761Z,13.50
2022-12-14T12:05:18.798Z,12.43
2022-12-14T12:07:55.688Z,13.63
2022-12-14T12:10:41.153Z,13.93
2022-12-14T12:13:29.613Z,14.55
2022-12-14T12:16:04.359Z,14.18
2022-12-14T12:18:31.395Z,16.92
2022-12-14T12:21:07.074Z,15.68
2022-12-14T12:24:06.695Z,19.90
2022-12-14T12:26:49.853Z,17.55
2022-12-14T12:29:31.730Z,16.15
2022-12-14T12:32:26.778Z,14.65
2022-12-14T12:35:22.391Z,17.40
2022-12-14T12:37:58.894Z,15.75
2022-12-14T12:40:52.092Z,14.93
2022-12-14T12:43:50.035Z,13.30
2022-12-14T12:46:29.778Z,13.38
2022-12-14T12:49:10.548Z,16.67
2022-12-14T12:51:45.082Z,19.83
2022-12-14T12:54:28.906Z,16.73
2022-12-14T12:56:58.296Z,16.10
2022-12-14T12:59:38.778Z,16.50
2022-12-14T13:02:30.610Z,16.08
2022-12-14T13:05:22.071Z,10.83
2022-12-14T13:08:26.214Z,17.38
2022-12-14T13:11:27.777Z,14.65
2022-12-14T13:13:50.173Z,18.13
2022-12-14T13:16:27.431Z,18.77
2022-12-14T13:19:18.895Z,12.73
2022-12-14T13:24:19.154Z,18.38
2022-12-14T13:27:17.842Z,16.98
2022-12-14T13:30:04.897Z,16.85
2022-12-14T13:32:37.918Z,12.60
2022-12-14T13:35:28.426Z,12.07
2022-12-14T13:38:32.860Z,19.65
2022-12-14T13:41:38.949Z,15.48
2022-12-14T13:44:11.361Z,18.08
2022-12-14T13:49:18.101Z,16.65
2022-12-14T13:51:50.146Z,18.27
2022-12-14T13:54:37.843Z,12.80
2022-12-14T13:57:21.127Z,16.42
2022-12-14T13:59:53.424Z,19.02
2022-12-14T14:02:32.464Z,18.52
2022-12-14T14:05:20.464Z,18.20
2022-12-14T14:08:00.810Z,22.50
2022-12-14T14:10:29.455Z,15.15
2022-12-14T14:12:56.576Z,16.50
2022-12-14T14:15:31.478Z,19.60
2022-12-14T14:18:26.405Z,22.42
2022-12-14T14:21:12.853Z,17.15
2022-12-14T14:23:58.420Z,20.17
2022-12-14T14:26:36.517Z,22.40
2022-12-14T14:29:22.549Z,22.08
2022-12-14T14:31:51.794Z,17.35
2022-12-14T14:34:33.625Z,21.42
2022-12-14T14:37:13.028Z,18.50
2022-12-14T14:39:57.736Z,19.55
2022-12-14T14:42:31.813Z,23.17
2022-12-14T14:45:01.473Z,21.17
2022-12-14T14:47:40.243Z,19.17
2022-12-14T14:50:15.687Z,22.20
2022-12-14T14:52:42.331Z,18.63
2022-12-14T14:55:54.975Z,18.25
2022-12-14T14:58:35.192Z,17.13
2022-12-14T15:01:04.068Z,15.88
2022-12-14T15:04:15.682Z,19.17
2022-12-14T15:06:50.722Z,19.02
2022-12-14T15:09:33.748Z,18.35
2022-12-14T15:12:07.345Z,17.70
2022-12-14T15:14:43.349Z,18.42
2022-12-14T15:17:17.364Z,16.83
2022-12-14T15:19:52.639Z,12.75
2022-12-14T15:22:22.605Z,18.55
2022-12-14T15:24:52.154Z,19.27
2022-12-14T15:27:31.237Z,17.35
2022-12-14T15:30:04.506Z,15.13
2022-12-14T15:32:31.909Z,16.65
2022-12-14T15:35:01.794Z,15.60
2022-12-14T15:37:41.619Z,21.58
2022-12-14T15:40:15.230Z,16.85
2022-12-14T15:43:09.435Z,16.45
2022-12-14T15:45:44.057Z,19.30
2022-12-14T15:48:30.063Z,20.92
2022-12-14T15:51:06.329Z,14.60
2022-12-14T15:53:43.737Z,15.63
2022-12-14T15:56:29.117Z,14.18
2022-12-14T15:59:05.238Z,14.88
2022-12-14T16:01:38.672Z,13.93
2022-12-14T16:04:10.521Z,15.68
2022-12-14T16:06:42.296Z,11.48
2022-12-14T16:09:49.830Z,14.07
2022-12-14T16:12:47.952Z,18.25
2022-12-14T16:15:19.594Z,19.55
2022-12-14T16:17:47.024Z,14.57
2022-12-14T16:20:16.054Z,15.55
2022-12-14T16:22:59.142Z,14.82
2022-12-14T16:25:26.012Z,21.67
2022-12-14T16:27:53.531Z,19.17
2022-12-14T16:30:24.212Z,17.55
2022-12-14T16:33:18.582Z,17.48
2022-12-14T16:35:47.438Z,15.80
2022-12-14T16:38:16.491Z,13.55
2022-12-14T16:40:57.443Z,15.57
2022-12-14T16:43:32.794Z,18.40
2022-12-14T16:46:03.044Z,12.85
2022-12-14T16:48:33.908Z,20.52
2022-12-14T16:52:06.759Z,16.05
2022-12-14T16:57:16.746Z,16.17
2022-12-14T16:59:46.377Z,15.40
2022-12-14T17:02:33.582Z,15.55
2022-12-14T17:05:04.694Z,18.83
2022-12-14T17:07:33.088Z,16.65
2022-12-14T17:10:00.240Z,14.75
2022-12-14T17:12:27.291Z,15.13
2022-12-14T17:14:54.251Z,19.73
2022-12-14T17:17:36.234Z,17.58
2022-12-14T17:20:10.491Z,22.25
2022-12-14T17:22:40.318Z,16.65
2022-12-14T17:25:07.399Z,18.45
2022-12-14T17:27:34.065Z,16.42
2022-12-14T17:30:01.567Z,15.15
2022-12-14T17:32:32.193Z,18.73
2022-12-14T17:34:59.987Z,25.55
2022-12-14T17:37:32.430Z,14.75
2022-12-14T17:40:03.074Z,16.63
2022-12-14T17:42:29.799Z,13.57
2022-12-14T17:44:58.229Z,20.02
2022-12-14T17:47:25.408Z,14.27
2022-12-14T17:49:52.189Z,25.38
2022-12-14T17:52:30.487Z,14.63
2022-12-14T17:54:57.956Z,18.98
2022-12-14T17:57:26.089Z,57.78
2022-12-14T18:00:13.292Z,16.00
2022-12-14T18:02:41.758Z,25.77
2022-12-14T18:05:19.223Z,25.15
2022-12-14T18:07:46.044Z,15.00
2022-12-14T18:10:18.349Z,14.10
2022-12-14T18:12:45.337Z,14.27
2022-12-14T18:15:26.949Z,16.60
2022-12-14T18:17:54.193Z,17.40
2022-12-14T18:20:23.396Z,12.00
2022-12-14T18:22:51.143Z,14.20
2022-12-14T18:25:37.969Z,12.65
2022-12-14T18:28:06.603Z,18.33
2022-12-14T18:30:41.802Z,10.57
2022-12-14T18:33:18.632Z,13.27
2022-12-14T18:35:48.335Z,15.48
2022-12-14T18:38:15.354Z,15.13
2022-12-14T18:40:49.875Z,13.38
2022-12-14T18:43:23.542Z,16.73
2022-12-14T18:45:52.111Z,10.55
2022-12-14T18:48:19.242Z,12.73
2022-12-14T18:50:45.966Z,14.65
2022-12-14T18:53:18.854Z,10.63
2022-12-14T18:55:46.027Z,13.30
2022-12-14T18:58:24.810Z,9.73
2022-12-14T19:00:54.775Z,9.80
2022-12-14T19:03:23.572Z,9.57
2022-12-14T19:05:50.547Z,9.02
2022-12-14T19:08:17.942Z,8.52
2022-12-14T19:10:47.927Z,10.57
2022-12-14T19:13:23.466Z,8.15
2022-12-14T19:15:52.386Z,17.45
2022-12-14T19:18:19.337Z,10.93
2022-12-14T19:20:46.149Z,8.73
2022-12-14T19:23:18.543Z,10.43
2022-12-14T19:25:46.464Z,11.57
2022-12-14T19:28:31.898Z,10.38
2022-12-14T19:31:00.900Z,13.00
2022-12-14T19:33:29.115Z,7.97
2022-12-14T19:35:56.209Z,13.25
2022-12-14T19:38:22.965Z,9.20
2022-12-14T19:41:02.052Z,8.60
2022-12-14T19:43:29.946Z,7.82
2022-12-14T19:45:57.562Z,12.38
2022-12-14T19:48:24.666Z,15.07
2022-12-14T19:50:51.707Z,11.02
2022-12-14T19:53:28.221Z,11.02
2022-12-14T19:55:55.074Z,10.43
2022-12-14T19:58:22.826Z,9.68
2022-12-14T20:00:50.817Z,10.88
2022-12-14T20:03:17.985Z,9.43
2022-12-14T20:05:58.972Z,8.10
2022-12-14T20:08:27.137Z,8.10
2022-12-14T20:10:53.991Z,11.75
2022-12-14T20:13:22.953Z,10.85
2022-12-14T20:16:02.112Z,9.40
2022-12-14T20:18:30.113Z,9.00
2022-12-14T20:21:05.549Z,10.93
2022-12-14T20:23:38.014Z,9.80
2022-12-14T20:28:35.032Z,10.32
2022-12-14T20:31:06.238Z,6.47
2022-12-14T20:33:33.527Z,11.32
2022-12-14T20:36:01.653Z,7.70
2022-12-14T20:38:29.788Z,8.25
2022-12-14T20:41:07.534Z,6.38
2022-12-14T20:43:39.630Z,5.63
2022-12-14T20:46:08.184Z,6.90
2022-12-14T20:48:36.483Z,7.85
2022-12-14T20:51:05.131Z,5.97
2022-12-14T20:53:34.109Z,9.20
2022-12-14T20:56:05.655Z,5.43
2022-12-14T20:58:32.933Z,6.18
2022-12-14T21:01:09.137Z,8.20
2022-12-14T21:03:36.456Z,6.65
2022-12-14T21:06:03.395Z,7.93
2022-12-14T21:08:32.204Z,9.43
2022-12-14T21:11:22.038Z,4.95
2022-12-14T21:13:50.365Z,7.40
2022-12-14T21:16:17.509Z,7.43
2022-12-14T21:18:44.247Z,10.80
2022-12-14T21:21:11.011Z,4.13
2022-12-14T21:23:41.286Z,5.53
2022-12-14T21:26:08.258Z,6.10
2022-12-14T21:28:35.283Z,6.43
2022-12-14T21:31:06.850Z,6.65
2022-12-14T21:33:35.647Z,6.32
2022-12-14T21:36:08.394Z,6.43
2022-12-14T21:38:36.009Z,13.18
2022-12-14T21:41:22.946Z,7.78
2022-12-14T21:43:49.655Z,5.15
2022-12-14T21:46:16.624Z,7.68
2022-12-14T21:48:43.426Z,5.25
2022-12-14T21:51:16.589Z,6.15
2022-12-14T21:54:00.405Z,7.05
2022-12-14T21:56:54.351Z,5.55
2022-12-14T21:59:28.029Z,5.28
2022-12-14T22:01:57.211Z,8.18
2022-12-14T22:04:27.230Z,7.63
2022-12-14T22:06:54.367Z,5.38
2022-12-14T22:09:21.909Z,6.78
2022-12-14T22:11:49.694Z,4.50
2022-12-14T22:14:21.159Z,6.28
2022-12-14T22:16:49.188Z,10.33
2022-12-14T22:19:24.970Z,8.30
2022-12-14T22:21:52.846Z,4.95
2022-12-14T22:24:21.485Z,7.13
2022-12-14T22:26:48.253Z,10.25
2022-12-14T22:29:17.400Z,5.80
2022-12-14T22:31:44.625Z,11.88
2022-12-14T22:34:18.914Z,8.82
2022-12-14T22:36:47.050Z,10.45
2022-12-14T22:39:14.747Z,5.70
2022-12-14T22:41:41.638Z,9.13
2022-12-14T22:44:09.830Z,9.00
2022-12-14T22:46:36.838Z,5.93
2022-12-14T22:49:04.137Z,12.23
2022-12-14T22:51:31.176Z,9.70
2022-12-14T22:53:58.491Z,13.40
2022-12-14T22:56:38.756Z,8.07
2022-12-14T22:59:11.862Z,12.68
2022-12-14T23:01:39.555Z,16.55
2022-12-14T23:04:07.714Z,17.45
2022-12-14T23:06:34.686Z,10.15
2022-12-14T23:09:20.593Z,11.50
2022-12-14T23:12:08.855Z,8.95
2022-12-14T23:14:56.924Z,10.95
2022-12-14T23:17:42.824Z,10.43
2022-12-14T23:20:28.906Z,20.60
2022-12-14T23:23:14.490Z,9.20
2022-12-14T23:26:00.214Z,8.68
2022-12-14T23:28:49.603Z,8.48
2022-12-14T23:31:35.314Z,8.07
2022-12-14T23:34:20.873Z,5.32
2022-12-14T23:37:06.224Z,12.23
2022-12-14T23:39:52.612Z,9.35
2022-12-14T23:42:38.056Z,13.10
2022-12-14T23:45:25.070Z,6.95
2022-12-14T23:48:10.357Z,7.90
2022-12-14T23:50:55.884Z,13.50
2022-12-14T23:53:41.456Z,10.57
2022-12-14T23:56:26.981Z,10.82
2022-12-14T23:59:14.179Z,8.27
